Terminal Aerodrome Forecast
Issued by NWS

Home | Current Version | Previous Version | Text Only | Print | Product List | Glossary On
Versions: 1 2 3 4 5 6 7 8 9 10 11 12 13 14 15 16 17 18 19 20 21 22 23
000
FTUS44 KFWD 072050 AAA
TAFFTW
TAF AMD
KFTW 072050Z 0721/0818 20017KT P6SM VCSH SCT040 BKN050 BKN110
     FM072200 18015KT P6SM VCTS SCT040 BKN060CB OVC300
     FM080200 18014KT P6SM -SHRA BKN050
     FM080700 18014KT P6SM VCTS BKN020CB
     FM081500 19015KT P6SM VCSH SCT030 BKN100=

USA.gov is the U.S. government's official web portal to all federal, state and local government web resources and services.